createdAt,value
2023-03-16T00:03:20.593Z,7.37
2023-03-16T00:08:24.134Z,11.23
2023-03-16T00:13:27.552Z,5.13
2023-03-16T00:18:30.487Z,7.13
2023-03-16T00:23:35.868Z,7.20
2023-03-16T00:28:38.792Z,4.37
2023-03-16T05:35:38.936Z,10.40
2023-03-16T05:40:42.341Z,14.00
2023-03-16T05:45:45.106Z,12.30
2023-03-16T05:50:48.247Z,11.43
2023-03-16T05:55:54.125Z,16.13
2023-03-16T06:01:01.827Z,10.37
2023-03-16T06:06:04.654Z,11.77
2023-03-16T06:11:07.895Z,12.87
2023-03-16T06:16:13.803Z,16.07
2023-03-16T06:21:16.895Z,14.97
2023-03-16T06:26:19.632Z,10.60
2023-03-16T06:31:22.511Z,15.13
2023-03-16T06:36:25.289Z,17.87
2023-03-16T06:41:28.039Z,17.43
2023-03-16T06:46:32.996Z,12.67
2023-03-16T06:51:35.715Z,18.93
2023-03-16T06:56:38.524Z,27.93
2023-03-16T07:01:42.269Z,13.17
2023-03-16T07:06:45.223Z,10.03
2023-03-16T07:11:48.444Z,10.03
2023-03-16T07:16:52.863Z,7.40
2023-03-16T07:21:56.132Z,12.10
2023-03-16T07:26:59.751Z,14.93
2023-03-16T07:32:04.124Z,11.20
2023-03-16T07:37:09.931Z,16.60
2023-03-16T07:42:19.927Z,11.17
2023-03-16T07:47:26.408Z,7.67
2023-03-16T07:52:31.497Z,12.97
2023-03-16T07:57:34.931Z,15.13
2023-03-16T08:02:38.259Z,16.13
2023-03-16T08:07:41.375Z,13.37
2023-03-16T08:12:44.639Z,15.30
2023-03-16T08:17:50.581Z,14.10
2023-03-16T08:22:53.873Z,15.40
2023-03-16T08:27:58.158Z,11.40
2023-03-16T08:33:03.204Z,12.20
2023-03-16T08:38:06.582Z,12.40
2023-03-16T08:43:11.022Z,11.53
2023-03-16T08:48:14.926Z,11.23
2023-03-16T08:53:18.897Z,8.03
2023-03-16T08:58:27.704Z,15.10
2023-03-16T09:03:31.560Z,16.67
2023-03-16T09:08:35.453Z,9.57
2023-03-16T09:13:39.377Z,12.70
2023-03-16T09:18:45.264Z,7.50
2023-03-16T09:23:49.706Z,7.00
2023-03-16T09:28:54.384Z,8.57
2023-03-16T09:33:59.098Z,5.00
2023-03-16T09:39:03.849Z,9.53
2023-03-16T09:44:29.239Z,5.27
2023-03-16T09:49:45.469Z,5.13
2023-03-16T09:55:07.595Z,5.40
2023-03-16T10:00:31.658Z,4.90
2023-03-16T10:05:34.960Z,3.90
2023-03-16T10:10:53.460Z,5.33
2023-03-16T10:15:59.779Z,4.97
2023-03-16T10:21:16.900Z,3.53
2023-03-16T10:26:38.239Z,2.40
2023-03-16T10:31:42.937Z,3.83
2023-03-16T10:36:48.601Z,4.10
2023-03-16T10:41:57.845Z,3.67
2023-03-16T10:47:08.481Z,4.80
2023-03-16T10:52:24.916Z,2.17
2023-03-16T10:57:33.981Z,4.27
2023-03-16T11:02:39.689Z,6.70
2023-03-16T11:07:58.512Z,2.20
2023-03-16T11:13:12.243Z,4.70
2023-03-16T11:18:37.079Z,3.50
2023-03-16T11:23:48.381Z,6.10
2023-03-16T11:29:03.664Z,2.23
2023-03-16T11:34:17.628Z,3.00
2023-03-16T11:39:44.369Z,2.80
2023-03-16T11:45:01.501Z,3.57
2023-03-16T11:50:50.054Z,1.43
2023-03-16T11:56:24.396Z,1.87
2023-03-16T12:01:35.071Z,2.03
2023-03-16T12:06:39.056Z,3.80
2023-03-16T12:11:57.757Z,2.50
2023-03-16T12:17:08.847Z,1.50
2023-03-16T12:22:19.977Z,2.73
2023-03-16T12:27:31.890Z,3.60
2023-03-16T12:32:53.598Z,2.13
2023-03-16T12:38:33.563Z,2.60
2023-03-16T12:44:00.757Z,2.37
2023-03-16T12:49:10.327Z,5.17
2023-03-16T12:54:24.009Z,2.70
2023-03-16T12:59:43.138Z,3.30
2023-03-16T13:04:51.797Z,2.90
2023-03-16T13:10:10.786Z,3.00
2023-03-16T13:15:22.144Z,3.57
2023-03-16T13:20:32.612Z,4.03
2023-03-16T13:25:43.737Z,3.67
2023-03-16T13:30:49.066Z,4.13
2023-03-16T13:35:54.351Z,2.17
2023-03-16T13:41:09.328Z,3.33
2023-03-16T13:46:22.351Z,4.33
2023-03-16T13:51:25.605Z,5.60
2023-03-16T13:56:32.570Z,1.50
2023-03-16T14:01:35.741Z,2.53
2023-03-16T14:06:39.598Z,1.93
2023-03-16T14:11:44.550Z,4.00
2023-03-16T14:16:47.341Z,2.47
2023-03-16T14:21:50.167Z,2.57
2023-03-16T14:26:52.928Z,4.90
2023-03-16T14:31:55.959Z,5.50
2023-03-16T14:37:19.422Z,3.83
2023-03-16T14:42:30.920Z,1.93
2023-03-16T14:47:42.846Z,2.50
2023-03-16T14:52:46.380Z,1.80
2023-03-16T14:57:51.350Z,3.43
2023-03-16T15:03:07.529Z,2.77
2023-03-16T15:08:18.821Z,2.77
2023-03-16T15:13:42.443Z,4.90
2023-03-16T15:18:45.339Z,6.43
2023-03-16T15:23:48.359Z,2.60
2023-03-16T15:28:51.100Z,1.50
2023-03-16T15:33:53.987Z,1.70
2023-03-16T15:38:56.897Z,1.93
2023-03-16T15:44:01.468Z,1.50
2023-03-16T15:49:04.429Z,2.63
2023-03-16T15:54:08.550Z,3.37
2023-03-16T15:59:14.027Z,5.43
2023-03-16T16:04:21.753Z,3.30
2023-03-16T16:09:25.523Z,2.97
2023-03-16T16:14:28.371Z,3.70
2023-03-16T16:19:34.177Z,4.20
2023-03-16T16:24:37.901Z,3.47
2023-03-16T16:29:41.050Z,7.60
2023-03-16T16:34:47.845Z,7.83
2023-03-16T16:39:57.712Z,4.83
2023-03-16T16:45:00.787Z,2.97
2023-03-16T16:50:10.301Z,4.47
2023-03-16T16:55:13.874Z,4.20
2023-03-16T17:00:23.896Z,4.67
2023-03-16T17:05:29.032Z,5.70
2023-03-16T17:10:33.315Z,6.97
2023-03-16T17:15:36.972Z,6.80
2023-03-16T17:20:40.233Z,14.83
2023-03-16T17:25:43.443Z,8.67
2023-03-16T17:30:49.609Z,6.93
2023-03-16T17:35:52.464Z,10.30
2023-03-16T17:40:56.312Z,10.80
2023-03-16T17:45:59.894Z,8.83
2023-03-16T17:51:02.962Z,13.17
2023-03-16T17:56:20.513Z,10.33
2023-03-16T18:01:29.155Z,15.00
2023-03-16T18:06:32.499Z,10.40
2023-03-16T18:11:37.637Z,17.10
2023-03-16T18:16:40.749Z,12.03
2023-03-16T18:21:47.184Z,6.43
2023-03-16T18:26:50.656Z,9.70
2023-03-16T18:31:55.297Z,14.17
2023-03-16T18:37:00.975Z,20.23
2023-03-16T18:42:04.243Z,19.13
2023-03-16T18:47:14.942Z,27.17
2023-03-16T18:52:26.193Z,31.13
2023-03-16T18:57:29.751Z,22.50
2023-03-16T19:02:40.713Z,18.47
2023-03-16T19:07:47.986Z,13.47
2023-03-16T19:12:51.182Z,18.70
2023-03-16T19:17:54.498Z,14.43
2023-03-16T19:23:06.287Z,20.63
2023-03-16T19:28:15.044Z,17.13
2023-03-16T19:33:26.283Z,17.70
2023-03-16T19:38:29.067Z,20.17
2023-03-16T19:43:31.842Z,19.43
2023-03-16T19:48:34.916Z,17.37
2023-03-16T19:53:37.658Z,14.17
2023-03-16T19:58:42.668Z,14.90
2023-03-16T20:03:47.746Z,13.13
2023-03-16T20:08:51.399Z,13.80
2023-03-16T20:13:54.209Z,11.63
2023-03-16T20:19:00.423Z,12.57
2023-03-16T20:24:03.531Z,12.83
2023-03-16T20:29:09.868Z,19.93
2023-03-16T20:34:23.177Z,15.90
2023-03-16T20:39:26.502Z,12.37
2023-03-16T20:44:30.285Z,12.87
2023-03-16T20:49:34.144Z,16.07
2023-03-16T20:54:37.081Z,18.70
2023-03-16T20:59:40.278Z,19.53
2023-03-16T21:04:44.217Z,26.33
2023-03-16T21:09:50.332Z,27.93
2023-03-16T21:14:53.436Z,33.33
2023-03-16T21:19:56.486Z,15.83
2023-03-16T21:24:59.275Z,26.43
2023-03-16T21:30:07.620Z,19.57
2023-03-16T21:35:15.179Z,30.80
2023-03-16T21:40:22.533Z,15.23
2023-03-16T21:45:25.496Z,12.93
2023-03-16T21:50:36.653Z,24.70
2023-03-16T21:55:39.440Z,33.23
2023-03-16T22:00:42.580Z,34.87
2023-03-16T22:05:45.338Z,41.37
2023-03-16T22:10:48.119Z,13.60
2023-03-16T22:15:52.476Z,26.67
2023-03-16T22:20:56.681Z,21.73
2023-03-16T22:26:00.244Z,35.70
2023-03-16T22:31:04.097Z,21.10
2023-03-16T22:36:12.088Z,19.67
2023-03-16T22:41:18.018Z,20.63
2023-03-16T22:46:23.461Z,21.37
2023-03-16T22:51:33.452Z,23.30
2023-03-16T22:56:36.667Z,27.60
2023-03-16T23:01:42.655Z,23.77
2023-03-16T23:06:47.188Z,27.03
2023-03-16T23:11:54.886Z,25.27
2023-03-16T23:16:57.842Z,42.37
2023-03-16T23:22:03.551Z,39.53
2023-03-16T23:27:17.620Z,41.10
2023-03-16T23:32:20.503Z,45.70
2023-03-16T23:37:23.245Z,42.57
2023-03-16T23:42:26.094Z,51.53
2023-03-16T23:47:29.139Z,49.20
2023-03-16T23:52:31.937Z,41.37
2023-03-16T23:57:34.653Z,59.07
